Time;durP1;ratioP1;P1;durP2;ratioP2;P2;SDS_P1;SDS_P2;PMS_P1;PMS_P2;Temp;Humidity;BMP_temperature;BMP_pressure;BME280_temperature;BME280_humidity;BME280_pressure;Samples;Min_cycle;Max_cycle;Signal;HPM_P1;HPM_P2
2024/01/14 00:02:23;;;;;;;62.83;38.22;;;;;;;3.06;100.00;101587.47;5238136;28;20057;-78
2024/01/14 00:04:55;;;;;;;64.15;38.00;;;;;;;3.09;100.00;101587.34;5235926;28;20036;-78
2024/01/14 00:07:27;;;;;;;66.60;37.90;;;;;;;3.10;100.00;101573.50;5237022;28;20045;-78
2024/01/14 00:09:59;;;;;;;70.45;41.25;;;;;;;3.05;100.00;101571.09;5236315;28;20039;-78
2024/01/14 00:12:31;;;;;;;69.35;39.40;;;;;;;3.08;100.00;101567.56;5236796;28;20029;-77
2024/01/14 00:15:04;;;;;;;71.93;39.90;;;;;;;3.11;100.00;101573.47;5236390;28;20041;-77
2024/01/14 00:17:36;;;;;;;66.45;39.63;;;;;;;3.09;100.00;101575.25;5236648;28;20044;-77
2024/01/14 00:20:08;;;;;;;69.20;38.75;;;;;;;3.05;100.00;101559.91;5236765;28;20025;-77
2024/01/14 00:22:40;;;;;;;66.88;39.15;;;;;;;3.08;100.00;101571.00;5236388;28;20100;-77
2024/01/14 00:25:12;;;;;;;69.10;38.67;;;;;;;3.07;100.00;101571.91;5234600;28;20464;-77
2024/01/14 00:27:44;;;;;;;64.28;37.60;;;;;;;3.10;100.00;101565.72;5236650;28;20033;-78
2024/01/14 00:30:16;;;;;;;64.05;37.92;;;;;;;3.12;100.00;101561.34;5236321;28;20040;-78
2024/01/14 00:32:48;;;;;;;68.88;38.90;;;;;;;3.14;100.00;101559.50;5236548;28;20390;-77
2024/01/14 00:35:20;;;;;;;68.22;38.80;;;;;;;3.15;100.00;101551.69;5235287;28;20029;-77
2024/01/14 00:37:52;;;;;;;68.53;37.65;;;;;;;3.12;100.00;101540.63;5232829;28;20041;-77
2024/01/14 00:40:24;;;;;;;65.00;38.90;;;;;;;3.13;100.00;101548.31;5232622;28;20033;-77
2024/01/14 00:42:56;;;;;;;69.28;37.35;;;;;;;3.12;100.00;101538.03;5245658;28;20047;-77
2024/01/14 00:45:28;;;;;;;65.05;36.97;;;;;;;3.14;100.00;101536.22;5229868;28;20040;-77
2024/01/14 00:48:00;;;;;;;58.92;35.55;;;;;;;3.16;100.00;101529.25;5233973;28;20041;-77
2024/01/14 00:50:32;;;;;;;65.63;37.38;;;;;;;3.14;100.00;101528.44;5234064;28;20037;-77
2024/01/14 00:53:04;;;;;;;63.78;36.90;;;;;;;3.20;100.00;101530.78;5235912;28;20090;-77
2024/01/14 00:55:37;;;;;;;61.88;35.50;;;;;;;3.23;100.00;101529.81;5236850;28;20399;-77
2024/01/14 00:58:09;;;;;;;57.60;34.38;;;;;;;3.19;100.00;101521.34;5236816;28;20033;-77
2024/01/14 01:00:41;;;;;;;59.40;35.30;;;;;;;3.25;100.00;101528.84;5236713;28;20034;-77
2024/01/14 01:03:13;;;;;;;63.38;36.33;;;;;;;3.20;100.00;101519.59;5235674;28;20033;-77
2024/01/14 01:05:44;;;;;;;62.45;36.65;;;;;;;3.23;100.00;101527.22;5236222;28;20451;-77
2024/01/14 01:08:16;;;;;;;59.70;36.10;;;;;;;3.22;100.00;101517.75;5236040;28;20041;-77
2024/01/14 01:10:49;;;;;;;58.30;33.58;;;;;;;3.22;100.00;101516.03;5231323;28;20037;-77
2024/01/14 01:13:20;;;;;;;59.30;35.78;;;;;;;3.23;100.00;101514.28;5232451;28;20025;-77
2024/01/14 01:15:52;;;;;;;63.90;36.03;;;;;;;3.16;100.00;101504.19;5230649;28;20457;-77
2024/01/14 01:18:24;;;;;;;59.30;36.03;;;;;;;3.19;100.00;101497.22;5231714;28;20022;-76
2024/01/14 01:20:56;;;;;;;56.28;35.33;;;;;;;3.21;100.00;101508.31;5233268;28;20051;-77
2024/01/14 01:23:28;;;;;;;61.10;36.40;;;;;;;3.19;100.00;101499.78;5230172;28;20038;-77
2024/01/14 01:26:00;;;;;;;57.95;34.33;;;;;;;3.23;100.00;101493.56;5232240;28;20095;-77
2024/01/14 01:28:32;;;;;;;60.17;34.47;;;;;;;3.23;100.00;101499.59;5232479;28;20032;-77
2024/01/14 01:31:04;;;;;;;59.67;34.45;;;;;;;3.28;100.00;101497.63;5232962;28;20037;-77
2024/01/14 01:33:36;;;;;;;62.42;36.08;;;;;;;3.20;100.00;101494.53;5231172;28;20045;-77
2024/01/14 01:36:08;;;;;;;60.50;35.60;;;;;;;3.32;100.00;101498.34;5231323;28;20357;-77
2024/01/14 01:38:40;;;;;;;61.35;36.03;;;;;;;3.24;100.00;101497.84;5230535;28;20045;-77
2024/01/14 01:41:12;;;;;;;59.47;35.45;;;;;;;3.22;100.00;101490.16;5232793;28;20395;-77
2024/01/14 01:43:43;;;;;;;62.10;35.72;;;;;;;3.28;100.00;101499.38;5231038;28;20041;-77
2024/01/14 01:46:15;;;;;;;63.58;36.38;;;;;;;3.29;100.00;101499.31;5232453;28;20037;-76
2024/01/14 01:48:47;;;;;;;60.15;35.60;;;;;;;3.31;100.00;101492.31;5234790;28;20035;-77
2024/01/14 01:51:20;;;;;;;58.35;36.70;;;;;;;3.28;100.00;101487.28;5233325;28;20036;-77
2024/01/14 01:53:52;;;;;;;61.75;35.25;;;;;;;3.32;100.00;101503.50;5231646;28;20029;-77
2024/01/14 01:56:25;;;;;;;61.90;35.45;;;;;;;3.35;100.00;101491.28;5230667;28;20036;-77
2024/01/14 01:58:57;;;;;;;60.72;35.63;;;;;;;3.33;100.00;101497.41;5229360;28;20032;-77
2024/01/14 02:01:29;;;;;;;63.40;36.20;;;;;;;3.28;100.00;101484.69;5232283;28;20482;-77
2024/01/14 02:04:01;;;;;;;61.55;35.35;;;;;;;3.29;100.00;101483.75;5231058;28;20025;-77
2024/01/14 02:06:34;;;;;;;56.15;33.90;;;;;;;3.37;100.00;101483.44;5232093;28;20400;-77
2024/01/14 02:09:07;;;;;;;62.25;34.47;;;;;;;3.32;100.00;101485.38;5231638;28;20037;-77
2024/01/14 02:11:39;;;;;;;;;;;;;;;3.79;100.00;101475.47;5231180;28;20037;-77
2024/01/14 02:14:10;;;;;;;56.92;34.63;;;;;;;3.33;100.00;101464.63;5230582;28;19917;-77
2024/01/14 02:16:42;;;;;;;53.10;33.50;;;;;;;3.37;100.00;101473.06;5230709;28;20088;-77
2024/01/14 02:19:14;;;;;;;58.03;34.00;;;;;;;3.34;100.00;101465.47;5227607;28;20033;-77
2024/01/14 02:21:51;;;;;;;55.58;34.70;;;;;;;3.33;100.00;101464.63;5230989;28;20317;-77
2024/01/14 02:24:29;;;;;;;55.97;33.65;;;;;;;3.40;100.00;101470.34;5228744;28;20041;-77
2024/01/14 02:27:01;;;;;;;56.75;35.20;;;;;;;3.30;100.00;101469.09;5230154;28;20033;-77
2024/01/14 02:29:37;;;;;;;55.58;33.97;;;;;;;3.32;100.00;101465.50;5229335;28;20501;-77
2024/01/14 02:32:09;;;;;;;59.75;33.67;;;;;;;3.30;100.00;101469.09;5230764;28;20044;-77
2024/01/14 02:34:41;;;;;;;60.75;34.75;;;;;;;3.27;100.00;101469.22;5230560;28;20040;-77
2024/01/14 02:37:14;;;;;;;61.85;35.97;;;;;;;3.27;100.00;101471.81;5231515;28;20041;-77
2024/01/14 02:39:45;;;;;;;58.08;35.40;;;;;;;3.26;100.00;101452.84;5229270;28;20053;-77
2024/01/14 02:42:17;;;;;;;63.95;36.53;;;;;;;3.29;100.00;101457.03;5229325;28;20057;-77
2024/01/14 02:44:49;;;;;;;64.15;36.83;;;;;;;3.25;100.00;101451.16;5227156;28;20033;-77
2024/01/14 02:47:21;;;;;;;54.85;34.53;;;;;;;3.26;100.00;101449.38;5226125;28;20033;-77
2024/01/14 02:49:53;;;;;;;59.88;36.03;;;;;;;3.24;100.00;101438.28;5230232;28;20405;-77
2024/01/14 02:52:25;;;;;;;61.78;36.65;;;;;;;3.21;100.00;101433.22;5229154;28;20029;-77
2024/01/14 02:54:57;;;;;;;62.38;37.00;;;;;;;3.15;100.00;101416.25;5227516;28;20044;-77
2024/01/14 02:57:29;;;;;;;58.92;35.08;;;;;;;3.15;100.00;101409.31;5230486;28;20513;-77
2024/01/14 03:00:01;;;;;;;58.30;36.42;;;;;;;3.14;100.00;101425.75;5229912;28;20152;-77
2024/01/14 03:02:33;;;;;;;55.35;35.55;;;;;;;3.05;100.00;101418.38;5229897;28;20022;-77
2024/01/14 03:05:05;;;;;;;51.47;32.83;;;;;;;3.05;100.00;101415.78;5230314;28;20079;-77
2024/01/14 03:07:37;;;;;;;52.43;33.30;;;;;;;3.05;100.00;101413.19;5227591;28;20529;-77
2024/01/14 03:10:09;;;;;;;52.97;33.28;;;;;;;3.02;100.00;101405.56;5228104;28;20037;-77
2024/01/14 03:12:41;;;;;;;54.20;31.90;;;;;;;2.99;100.00;101402.28;5230760;28;20033;-77
2024/01/14 03:15:13;;;;;;;54.85;32.70;;;;;;;3.02;100.00;101399.56;5230422;28;20505;-77
2024/01/14 03:17:45;;;;;;;56.42;34.00;;;;;;;3.05;100.00;101387.31;5228079;28;20049;-77
2024/01/14 03:20:17;;;;;;;55.47;33.22;;;;;;;3.04;100.00;101388.22;5229688;28;20028;-77
2024/01/14 03:22:49;;;;;;;52.78;33.05;;;;;;;2.94;100.00;101386.94;5230818;28;20173;-77
2024/01/14 03:25:21;;;;;;;57.25;33.88;;;;;;;2.94;100.00;101389.53;5228510;28;20372;-77
2024/01/14 03:27:53;;;;;;;54.60;33.53;;;;;;;2.95;100.00;101386.03;5229540;28;20037;-77
2024/01/14 03:30:25;;;;;;;56.38;34.25;;;;;;;2.94;100.00;101376.59;5229987;28;20039;-77
2024/01/14 03:32:57;;;;;;;52.38;32.78;;;;;;;2.92;100.00;101384.44;5229571;28;20037;-77
2024/01/14 03:35:29;;;;;;;55.42;33.38;;;;;;;2.91;100.00;101382.75;5228900;28;20482;-77
2024/01/14 03:38:01;;;;;;;54.92;33.22;;;;;;;2.92;100.00;101376.69;5228750;28;20038;-77
2024/01/14 03:40:33;;;;;;;50.15;31.98;;;;;;;2.95;100.00;101375.69;5229506;28;20095;-77
2024/01/14 03:43:05;;;;;;;48.83;30.73;;;;;;;2.89;100.00;101373.38;5227513;28;20033;-77
2024/01/14 03:45:36;;;;;;;46.97;30.15;;;;;;;2.87;100.00;101375.19;5229370;28;20271;-77
2024/01/14 03:48:08;;;;;;;48.70;30.55;;;;;;;2.88;100.00;101363.94;5228316;28;20029;-77
2024/01/14 03:50:40;;;;;;;49.65;31.83;;;;;;;2.86;100.00;101370.94;5228090;28;20044;-77
2024/01/14 03:53:12;;;;;;;50.70;29.95;;;;;;;2.82;100.00;101371.97;5229309;28;20033;-77
2024/01/14 03:55:47;;;;;;;45.72;28.00;;;;;;;2.81;100.00;101367.72;5228363;28;20032;-77
2024/01/14 03:58:19;;;;;;;48.90;29.85;;;;;;;2.81;100.00;101368.56;5228881;28;20022;-77
2024/01/14 04:00:51;;;;;;;49.45;31.40;;;;;;;2.80;100.00;101368.59;5228829;28;20029;-77
2024/01/14 04:03:22;;;;;;;48.53;30.73;;;;;;;2.80;100.00;101355.66;5227940;28;20394;-77
2024/01/14 04:05:54;;;;;;;52.83;31.60;;;;;;;2.83;100.00;101360.72;5228197;28;20797;-77
2024/01/14 04:08:26;;;;;;;47.65;29.23;;;;;;;2.82;100.00;101354.69;5223987;28;20041;-77
2024/01/14 04:10:58;;;;;;;51.42;31.48;;;;;;;2.79;100.00;101349.66;5226295;28;20291;-77
2024/01/14 04:13:30;;;;;;;50.60;31.48;;;;;;;2.81;100.00;101357.38;5228491;28;20034;-77
2024/01/14 04:16:02;;;;;;;50.83;30.98;;;;;;;2.81;100.00;101344.44;5228896;28;20426;-77
2024/01/14 04:18:37;;;;;;;49.75;31.27;;;;;;;2.84;100.00;101336.50;5224058;28;20040;-77
2024/01/14 04:21:19;;;;;;;49.08;30.25;;;;;;;2.91;100.00;101343.09;5223895;28;20056;-77
2024/01/14 04:23:51;;;;;;;49.10;30.67;;;;;;;2.72;100.00;101330.13;5229387;28;20394;-77
2024/01/14 04:26:23;;;;;;;50.30;30.48;;;;;;;2.74;100.00;101338.69;5229123;28;20048;-77
2024/01/14 04:28:55;;;;;;;51.92;30.60;;;;;;;2.70;100.00;101337.13;5227551;28;20461;-77
2024/01/14 04:31:28;;;;;;;44.33;28.63;;;;;;;2.72;100.00;101347.41;5228494;28;20041;-77
2024/01/14 04:34:03;;;;;;;48.55;29.50;;;;;;;2.68;100.00;101347.53;5228516;28;20497;-77
2024/01/14 04:36:34;;;;;;;45.63;29.33;;;;;;;2.68;100.00;101339.78;5226107;28;20037;-77
2024/01/14 04:39:07;;;;;;;51.15;28.85;;;;;;;2.65;100.00;101345.09;5226687;28;20049;-77
2024/01/14 04:41:41;;;;;;;45.08;28.10;;;;;;;2.64;100.00;101340.81;5226866;28;20040;-77
2024/01/14 04:44:12;;;;;;;;;;;;;;;3.18;100.00;101338.41;5228677;28;20586;-77
2024/01/14 04:46:45;;;;;;;44.38;27.23;;;;;;;2.68;100.00;101318.25;5228689;28;19917;-77
2024/01/14 04:49:16;;;;;;;41.90;27.08;;;;;;;2.68;100.00;101332.00;5227335;28;20029;-77
2024/01/14 04:51:48;;;;;;;40.45;25.33;;;;;;;2.59;100.00;101310.91;5228266;28;20510;-77
2024/01/14 04:54:20;;;;;;;36.08;24.80;;;;;;;2.69;100.00;101319.94;5228730;28;20037;-77
2024/01/14 04:56:52;;;;;;;42.35;26.05;;;;;;;2.67;100.00;101314.81;5228319;28;20033;-77
2024/01/14 04:59:24;;;;;;;37.35;24.05;;;;;;;2.67;100.00;101319.16;5226951;28;20029;-77
2024/01/14 05:01:56;;;;;;;40.28;24.75;;;;;;;2.72;100.00;101316.34;5229201;28;20402;-77
2024/01/14 05:04:28;;;;;;;35.80;23.63;;;;;;;2.69;100.00;101314.75;5227208;28;20264;-77
2024/01/14 05:07:00;;;;;;;33.25;21.83;;;;;;;2.67;100.00;101314.81;5228888;28;20445;-77
2024/01/14 05:09:32;;;;;;;35.05;23.63;;;;;;;2.65;100.00;101311.47;5227597;28;20373;-77
2024/01/14 05:12:04;;;;;;;36.95;23.92;;;;;;;2.66;100.00;101305.38;5228808;28;20395;-77
2024/01/14 05:14:36;;;;;;;39.15;24.75;;;;;;;2.63;100.00;101292.59;5227179;28;20044;-77
2024/01/14 05:17:08;;;;;;;40.03;24.38;;;;;;;2.65;100.00;101293.38;5228406;28;20402;-77
2024/01/14 05:19:40;;;;;;;35.63;23.20;;;;;;;2.64;100.00;101299.44;5227100;28;20047;-77
2024/01/14 05:22:12;;;;;;;36.63;23.30;;;;;;;2.60;100.00;101295.28;5228705;28;20033;-77
2024/01/14 05:24:45;;;;;;;37.00;23.58;;;;;;;2.62;100.00;101285.72;5227733;28;20044;-77
2024/01/14 05:27:17;;;;;;;36.45;23.08;;;;;;;2.63;100.00;101286.56;5227896;28;20475;-77
2024/01/14 05:29:48;;;;;;;39.92;25.42;;;;;;;2.58;100.00;101291.13;5227200;28;20033;-77
2024/01/14 05:32:20;;;;;;;43.15;25.58;;;;;;;2.54;100.00;101282.66;5229326;28;20040;-77
2024/01/14 05:34:52;;;;;;;37.92;24.33;;;;;;;2.55;100.00;101279.16;5231423;28;20048;-77
2024/01/14 05:37:24;;;;;;;42.58;26.15;;;;;;;2.56;100.00;101275.66;5231140;28;20034;-77
2024/01/14 05:39:56;;;;;;;39.47;24.50;;;;;;;2.55;100.00;101279.16;5230330;28;20521;-77
2024/01/14 05:42:28;;;;;;;40.10;25.05;;;;;;;2.54;100.00;101272.31;5232175;28;20041;-77
2024/01/14 05:45:00;;;;;;;42.45;26.30;;;;;;;2.52;100.00;101270.69;5230988;28;20066;-77
2024/01/14 05:47:32;;;;;;;42.28;25.33;;;;;;;2.53;100.00;101267.19;5230557;28;20033;-77
2024/01/14 05:50:04;;;;;;;41.45;25.55;;;;;;;2.53;100.00;101272.34;5230439;28;20291;-77
2024/01/14 05:52:37;;;;;;;41.85;25.55;;;;;;;2.51;100.00;101266.44;5231592;28;20033;-77
2024/01/14 05:55:09;;;;;;;41.70;25.40;;;;;;;2.47;100.00;101270.06;5230987;28;20037;-77
2024/01/14 05:57:41;;;;;;;46.17;27.05;;;;;;;2.51;100.00;101266.44;5231214;28;20609;-77
2024/01/14 06:00:13;;;;;;;42.20;27.25;;;;;;;2.44;100.00;101256.34;5230776;28;20044;-77
2024/01/14 06:02:45;;;;;;;42.97;26.20;;;;;;;2.49;100.00;101260.47;5231758;28;20040;-77
2024/01/14 06:05:17;;;;;;;41.97;26.45;;;;;;;2.48;100.00;101254.47;5230748;28;20025;-76
2024/01/14 06:07:49;;;;;;;43.83;25.35;;;;;;;2.42;100.00;101237.50;5230736;28;20029;-77
2024/01/14 06:10:21;;;;;;;43.75;26.77;;;;;;;2.43;100.00;101239.16;5230889;28;20060;-77
2024/01/14 06:12:53;;;;;;;44.60;26.42;;;;;;;2.47;100.00;101242.44;5231418;28;20033;-77
2024/01/14 06:15:25;;;;;;;41.72;26.23;;;;;;;2.47;100.00;101239.88;5230512;28;20044;-77
2024/01/14 06:17:57;;;;;;;43.05;26.13;;;;;;;2.51;100.00;101236.22;5230105;28;20442;-77
2024/01/14 06:20:29;;;;;;;40.20;24.75;;;;;;;2.50;100.00;101234.56;5230638;28;20037;-77
2024/01/14 06:23:01;;;;;;;45.30;25.95;;;;;;;2.53;100.00;101236.16;5231655;28;20043;-77
2024/01/14 06:25:33;;;;;;;41.15;24.83;;;;;;;2.53;100.00;101233.56;5231292;28;20046;-77
2024/01/14 06:28:05;;;;;;;41.45;25.00;;;;;;;2.51;100.00;101231.06;5230029;28;20298;-77
2024/01/14 06:30:37;;;;;;;38.92;24.45;;;;;;;2.48;100.00;101226.03;5229470;28;20048;-77
2024/01/14 06:33:09;;;;;;;43.80;25.33;;;;;;;2.49;100.00;101226.84;5230390;28;20048;-77
2024/01/14 06:35:41;;;;;;;39.60;24.33;;;;;;;2.49;100.00;101217.34;5229644;28;20412;-76
2024/01/14 06:38:13;;;;;;;40.20;24.42;;;;;;;2.48;100.00;101215.69;5226900;28;20041;-76
2024/01/14 06:40:45;;;;;;;38.53;23.98;;;;;;;2.49;100.00;101211.34;5229702;28;20040;-77
2024/01/14 06:43:17;;;;;;;37.78;23.08;;;;;;;2.47;100.00;101215.75;5226871;28;20048;-77
2024/01/14 06:45:49;;;;;;;36.45;23.73;;;;;;;2.43;100.00;101204.72;5227028;28;20493;-77
2024/01/14 06:48:21;;;;;;;38.65;25.02;;;;;;;2.50;100.00;101218.19;5228068;28;20029;-77
2024/01/14 06:50:53;;;;;;;38.20;23.73;;;;;;;2.51;100.00;101204.38;5230064;28;20035;-76
2024/01/14 06:53:24;;;;;;;35.97;24.23;;;;;;;2.48;100.00;101200.16;5228069;28;20029;-76
2024/01/14 06:55:56;;;;;;;38.95;24.20;;;;;;;2.48;100.00;101200.16;5229612;28;21046;-77
2024/01/14 06:58:29;;;;;;;36.95;23.65;;;;;;;2.44;100.00;101199.47;5228881;28;20035;-77
2024/01/14 07:01:03;;;;;;;35.50;23.30;;;;;;;2.44;100.00;101185.69;5232612;28;20041;-77
2024/01/14 07:03:35;;;;;;;40.15;23.35;;;;;;;2.40;100.00;101192.75;5230226;28;20571;-77
2024/01/14 07:06:07;;;;;;;37.00;24.02;;;;;;;2.43;100.00;101184.03;5230425;28;20043;-77
2024/01/14 07:08:40;;;;;;;40.75;24.92;;;;;;;2.42;100.00;101185.78;5233651;28;20052;-77
2024/01/14 07:11:11;;;;;;;40.15;24.75;;;;;;;2.41;100.00;101184.06;5239038;28;20025;-77
2024/01/14 07:13:44;;;;;;;40.70;24.83;;;;;;;2.43;100.00;101187.44;5237661;28;20048;-79
2024/01/14 07:16:16;;;;;;;41.22;25.35;;;;;;;2.42;100.00;101179.75;5239005;28;20100;-77
2024/01/14 07:18:48;;;;;;;41.67;26.30;;;;;;;2.44;100.00;101196.03;5238077;28;20032;-77
2024/01/14 07:21:22;;;;;;;42.63;26.38;;;;;;;2.39;100.00;101187.66;5238457;28;20034;-77
2024/01/14 07:23:55;;;;;;;42.40;26.73;;;;;;;2.29;100.00;101183.81;5237410;28;20033;-77
2024/01/14 07:26:27;;;;;;;43.23;25.40;;;;;;;2.34;100.00;101185.25;5237655;28;20399;-77
2024/01/14 07:28:59;;;;;;;44.00;25.83;;;;;;;2.42;100.00;101195.25;5237626;28;20045;-77
2024/01/14 07:31:31;;;;;;;45.97;27.33;;;;;;;2.41;100.00;101191.00;5237832;28;20040;-77
2024/01/14 07:34:03;;;;;;;42.45;26.08;;;;;;;2.37;100.00;101194.63;5236943;28;20035;-77
2024/01/14 07:36:34;;;;;;;46.40;26.30;;;;;;;2.37;100.00;101174.78;5237905;28;20438;-77
2024/01/14 07:39:06;;;;;;;45.08;26.85;;;;;;;2.42;100.00;101185.78;5233800;28;20033;-76
2024/01/14 07:41:39;;;;;;;44.22;26.23;;;;;;;2.44;100.00;101186.53;5234290;28;20045;-77
2024/01/14 07:44:10;;;;;;;45.92;26.13;;;;;;;2.44;100.00;101180.53;5230515;28;20497;-77
2024/01/14 07:46:43;;;;;;;43.22;25.80;;;;;;;2.38;100.00;101179.03;5234000;28;20037;-77
2024/01/14 07:49:15;;;;;;;44.17;26.55;;;;;;;2.40;100.00;101178.97;5233251;28;20029;-77
2024/01/14 07:51:47;;;;;;;41.38;25.70;;;;;;;2.38;100.00;101178.19;5233844;28;20040;-77
2024/01/14 07:54:19;;;;;;;48.00;26.50;;;;;;;2.37;100.00;101187.72;5231572;28;20509;-78
2024/01/14 07:56:51;;;;;;;40.83;23.73;;;;;;;2.39;100.00;101182.50;5233391;28;20037;-76
2024/01/14 07:59:23;;;;;;;38.75;24.67;;;;;;;2.46;100.00;101178.69;5231740;28;20040;-77
2024/01/14 08:01:56;;;;;;;36.38;24.05;;;;;;;2.40;100.00;101177.22;5233035;28;20041;-77
2024/01/14 08:04:28;;;;;;;35.83;22.63;;;;;;;2.46;100.00;101178.69;5232846;28;20033;-77
2024/01/14 08:07:00;;;;;;;36.58;22.27;;;;;;;2.46;100.00;101176.09;5233626;28;20029;-77
2024/01/14 08:09:32;;;;;;;35.58;22.13;;;;;;;2.48;100.00;101179.47;5231182;28;20052;-77
2024/01/14 08:12:04;;;;;;;37.08;22.70;;;;;;;2.48;100.00;101182.06;5232331;28;20029;-77
2024/01/14 08:14:36;;;;;;;36.95;22.35;;;;;;;2.50;100.00;101166.47;5233591;28;20033;-77
2024/01/14 08:17:07;;;;;;;33.75;22.00;;;;;;;2.50;100.00;101169.91;5232898;28;20033;-77
2024/01/14 08:19:39;;;;;;;34.67;21.88;;;;;;;2.53;100.00;101168.91;5233228;28;20481;-77
2024/01/14 08:22:11;;;;;;;32.63;21.02;;;;;;;2.51;100.00;101162.97;5232617;28;20037;-76
2024/01/14 08:24:43;;;;;;;36.55;22.38;;;;;;;2.51;100.00;101176.75;5233584;28;20069;-77
2024/01/14 08:27:15;;;;;;;36.03;22.35;;;;;;;2.49;100.00;101173.38;5233816;28;20080;-76
2024/01/14 08:29:47;;;;;;;35.97;23.40;;;;;;;2.52;100.00;101169.81;5232255;28;20033;-77
2024/01/14 08:32:19;;;;;;;35.95;22.83;;;;;;;2.54;100.00;101170.56;5233147;28;20033;-76
2024/01/14 08:34:51;;;;;;;35.25;23.00;;;;;;;2.49;100.00;101173.38;5231768;28;20037;-77
2024/01/14 08:37:26;;;;;;;34.20;22.88;;;;;;;2.53;100.00;101174.91;5233656;28;20067;-76
2024/01/14 08:39:58;;;;;;;36.47;21.67;;;;;;;2.55;100.00;101170.53;5232330;28;20041;-77
2024/01/14 08:42:30;;;;;;;35.58;22.98;;;;;;;2.57;100.00;101173.88;5232457;28;20025;-77
2024/01/14 08:45:03;;;;;;;39.45;25.05;;;;;;;2.62;100.00;101171.09;5231739;28;20056;-76
2024/01/14 08:47:34;;;;;;;40.70;25.88;;;;;;;2.58;100.00;101170.38;5231125;28;20496;-77
2024/01/14 08:50:10;;;;;;;35.13;22.80;;;;;;;2.66;100.00;101164.84;5229984;28;20041;-76
2024/01/14 08:52:42;;;;;;;38.05;23.92;;;;;;;2.61;100.00;101165.09;5231173;28;20509;-76
2024/01/14 08:55:14;;;;;;;40.22;22.85;;;;;;;2.62;100.00;101161.56;5231302;28;20033;-76
2024/01/14 08:57:46;;;;;;;35.88;23.52;;;;;;;2.65;100.00;101166.63;5230206;28;20056;-76
2024/01/14 09:00:18;;;;;;;35.92;23.02;;;;;;;2.64;100.00;101171.84;5230845;28;20026;-76
2024/01/14 09:02:50;;;;;;;33.58;22.17;;;;;;;2.65;100.00;101160.56;5230635;28;20029;-76
2024/01/14 09:05:22;;;;;;;36.85;23.20;;;;;;;2.58;100.00;101165.22;5231248;28;20043;-76
2024/01/14 09:07:54;;;;;;;35.85;22.30;;;;;;;2.58;100.00;101167.81;5231556;28;20037;-76
2024/01/14 09:10:26;;;;;;;36.38;23.05;;;;;;;2.64;100.00;101164.91;5234464;28;20471;-77
2024/01/14 09:12:58;;;;;;;37.63;23.23;;;;;;;2.64;100.00;101166.66;5233386;28;20099;-76
2024/01/14 09:15:30;;;;;;;34.83;23.38;;;;;;;2.65;100.00;101161.44;5233034;28;20398;-77
2024/01/14 09:18:02;;;;;;;40.03;24.38;;;;;;;2.64;100.00;101166.66;5234189;28;20390;-76
2024/01/14 09:20:34;;;;;;;38.33;22.67;;;;;;;2.63;100.00;101159.81;5234047;28;20034;-76
2024/01/14 09:23:07;;;;;;;36.08;23.15;;;;;;;2.63;100.00;101147.72;5234821;28;20033;-76
2024/01/14 09:25:39;;;;;;;40.22;24.55;;;;;;;2.64;100.00;101138.22;5232992;28;20036;-76
2024/01/14 09:28:11;;;;;;;43.08;26.08;;;;;;;2.61;100.00;101144.38;5233306;28;20037;-76
2024/01/14 09:30:43;;;;;;;40.95;26.75;;;;;;;2.64;100.00;101141.63;5235234;28;20037;-76
2024/01/14 09:33:15;;;;;;;42.90;25.17;;;;;;;2.65;100.00;101138.16;5234562;28;20033;-77
2024/01/14 09:35:47;;;;;;;41.13;25.65;;;;;;;2.68;100.00;101144.91;5238601;28;20514;-77
2024/01/14 09:38:19;;;;;;;44.00;25.63;;;;;;;2.65;100.00;101135.56;5233504;28;20049;-77
2024/01/14 09:41:08;;;;;;;39.22;24.85;;;;;;;2.71;100.00;101123.25;5234041;28;20478;-76
2024/01/14 09:43:48;;;;;;;39.70;24.48;;;;;;;2.80;100.00;101133.97;5233991;28;20157;-77
2024/01/14 09:46:20;;;;;;;40.95;25.77;;;;;;;2.69;100.00;101125.91;5234990;28;20034;-76
2024/01/14 09:48:54;;;;;;;37.35;25.02;;;;;;;2.82;100.00;101131.34;5234957;28;20407;-77
2024/01/14 09:51:32;;;;;;;41.25;25.80;;;;;;;2.83;100.00;101117.47;5230404;28;20661;-77
2024/01/14 09:54:04;;;;;;;42.22;25.30;;;;;;;2.84;100.00;101124.31;5233258;28;20048;-77
2024/01/14 09:56:38;;;;;;;41.60;25.57;;;;;;;2.89;100.00;101122.38;5233954;28;20447;-77
2024/01/14 09:59:13;;;;;;;42.20;25.88;;;;;;;2.88;100.00;101120.72;5233468;28;20037;-76
2024/01/14 10:01:45;;;;;;;42.10;25.40;;;;;;;2.83;100.00;101117.47;5233023;28;20037;-77
2024/01/14 10:04:18;;;;;;;39.95;25.02;;;;;;;2.83;100.00;101118.31;5233232;28;20041;-77
2024/01/14 10:06:51;;;;;;;39.17;24.92;;;;;;;2.91;100.00;101120.53;5234541;28;20033;-77
2024/01/14 10:09:24;;;;;;;39.88;24.92;;;;;;;2.96;100.00;101118.56;5232101;28;20041;-76
2024/01/14 10:11:56;;;;;;;42.80;24.55;;;;;;;2.90;100.00;101118.88;5221132;28;20025;-76
2024/01/14 10:14:28;;;;;;;41.58;25.17;;;;;;;2.97;100.00;101127.19;5230090;28;20426;-76
2024/01/14 10:17:00;;;;;;;38.60;25.05;;;;;;;2.93;100.00;101114.38;5232837;28;20589;-77
2024/01/14 10:19:32;;;;;;;38.95;24.50;;;;;;;3.00;100.00;101114.09;5224020;28;20029;-77
2024/01/14 10:22:04;;;;;;;36.15;24.20;;;;;;;2.92;100.00;101107.53;5230204;28;20033;-77
2024/01/14 10:24:36;;;;;;;34.90;23.08;;;;;;;2.96;100.00;101109.97;5231748;28;20597;-77
2024/01/14 10:27:10;;;;;;;34.15;22.15;;;;;;;2.93;100.00;101109.19;5232189;28;20112;-77
2024/01/14 10:29:41;;;;;;;38.60;25.02;;;;;;;2.96;100.00;101105.63;5226536;28;20522;-76
2024/01/14 10:32:13;;;;;;;33.70;21.52;;;;;;;2.96;100.00;101103.06;5231565;28;20041;-77
2024/01/14 10:34:45;;;;;;;33.53;22.80;;;;;;;2.99;100.00;101102.88;5231918;28;20045;-77
2024/01/14 10:37:19;;;;;;;35.67;22.42;;;;;;;2.95;100.00;101093.59;5231489;28;20037;-77
2024/01/14 10:39:53;;;;;;;34.25;22.55;;;;;;;2.95;100.00;101085.81;5231842;28;20505;-77
2024/01/14 10:42:25;;;;;;;31.88;22.67;;;;;;;2.81;100.00;101076.16;5231619;28;20033;-77
2024/01/14 10:44:57;;;;;;;35.00;22.77;;;;;;;2.89;100.00;101089.56;5233101;28;20095;-77
2024/01/14 10:47:31;;;;;;;32.92;22.05;;;;;;;2.89;100.00;101081.81;5231668;28;20044;-77
2024/01/14 10:50:05;;;;;;;34.30;22.67;;;;;;;2.91;100.00;101073.94;5232292;28;20044;-76
2024/01/14 10:52:40;;;;;;;36.42;23.67;;;;;;;2.89;100.00;101076.63;5231758;28;20391;-77
2024/01/14 10:55:27;;;;;;;33.90;22.15;;;;;;;2.97;100.00;101068.47;5229488;28;20416;-77
2024/01/14 10:58:03;;;;;;;37.60;23.23;;;;;;;2.87;100.00;101056.91;5233145;28;20383;-77
2024/01/14 11:00:37;;;;;;;34.72;22.65;;;;;;;2.87;100.00;101052.56;5230786;28;20231;-76
2024/01/14 11:03:09;;;;;;;34.95;22.55;;;;;;;2.87;100.00;101054.31;5231750;28;20033;-77
2024/01/14 11:05:42;;;;;;;36.05;23.67;;;;;;;2.79;100.00;101046.09;5233234;28;20056;-77
2024/01/14 11:08:16;;;;;;;37.55;24.33;;;;;;;2.84;100.00;101044.09;5233596;28;20025;-78
2024/01/14 11:10:53;;;;;;;34.88;23.55;;;;;;;2.82;100.00;101038.19;5230926;28;20041;-77
2024/01/14 11:13:42;;;;;;;37.33;23.52;;;;;;;2.90;100.00;101034.31;5232142;28;20494;-77
2024/01/14 11:16:21;;;;;;;33.83;23.08;;;;;;;2.78;100.00;101032.31;5232034;28;20033;-77
2024/01/14 11:19:05;;;;;;;37.47;24.30;;;;;;;2.91;100.00;101032.53;5232814;28;20418;-77
2024/01/14 11:21:49;;;;;;;37.30;23.75;;;;;;;2.88;100.00;101022.38;5231866;28;20490;-77
2024/01/14 11:24:24;;;;;;;35.63;22.02;;;;;;;2.75;100.00;101022.13;5231377;28;20037;-77
2024/01/14 11:26:56;;;;;;;35.22;23.38;;;;;;;2.72;100.00;101017.09;5232289;28;20032;-77
2024/01/14 11:29:33;;;;;;;34.50;23.83;;;;;;;2.80;100.00;101004.63;5232367;28;20036;-77
2024/01/14 11:32:11;;;;;;;35.55;23.55;;;;;;;2.76;100.00;100999.69;5230734;28;20025;-77
2024/01/14 11:34:46;;;;;;;38.85;23.42;;;;;;;2.87;100.00;100999.97;5229599;28;20035;-77